Observations for NEWCASTLE, United Kingdom (EGNT)

EGNT 240850Z 05005KT 0900 R07/0900 FG OVC001 14/// Q1017
EGNT 240820Z 02004KT 350V050 0500 R07/0650 FG OVC000 14/// Q1017
EGNT 240750Z 01005KT 340V050 0300 R07/0400 FG OVC001 14/// Q1017
EGNT 240720Z 36004KT 0450 R07/0400 FG OVC000 13/// Q1017
EGNT 240650Z 04005KT 010V070 0400 R07/0450 FG OVC000 13/// Q1017
EGNT 240620Z 05006KT 2000 -RA BR OVC001 13/// Q1017 
EGNT 240550Z 04007KT 350V060 2500 -RA BR OVC001 13/// Q1017 
EGNT 240520Z 04007KT 3000 -RA BR OVC002 13/// Q1017 
EGNT 240450Z 04007KT 4000 BR OVC003 13/// Q1017 
EGNT 240420Z 04007KT 4000 -RA BR OVC003 13/// Q1017 
EGNT 240350Z 01005KT 8000 -RA OVC002 13/// Q1018
EGNT 240320Z 04005KT 9999 -RA OVC003 13/13 Q1018 RERA   
EGNT 240250Z 04007KT 8000 -RA OVC003 13/13 Q1018
EGNT 240150Z 05008KT 7000 -RA OVC003 13/13 Q1019
EGNT 240120Z 05007KT 9999 -RA OVC002 13/13 Q1019
EGNT 240050Z 06007KT 6000 -RA OVC002 13/13 Q1019
EGNT 240020Z 05006KT 6000 -RA OVC002 13/13 Q1020
EGNT 232350Z 05007KT 7000 -RA BKN003 13/13 Q1020
EGNT 232320Z 04006KT 7000 -RA BKN003 13/13 Q1020
EGNT 232250Z 06006KT 9999 -RA BKN004 13/13 Q1021
EGNT 232220Z 05005KT 9999 -RA BKN004 13/13 Q1021
EGNT 232150Z 05006KT 9999 -RA BKN004 13/13 Q1021
EGNT 232120Z 05006KT 9999 -RA BKN005 13/13 Q1021
EGNT 232050Z 06005KT 9999 BKN005 13/13 Q1021
EGNT 232020Z 06007KT 9999 BKN006 13/13 Q1021
EGNT 231950Z 06007KT 9999 BKN007 13/12 Q1021
EGNT 231920Z 06009KT 9999 BKN008 13/12 Q1020
EGNT 231820Z 07008KT 9999 BKN008 13/12 Q1021
EGNT 231750Z 08007KT 9999 SCT012 13/12 Q1021
EGNT 231720Z 08007KT 9999 FEW012 13/12 Q1021
EGNT 231650Z 09007KT 070V140 9999 FEW015 14/11 Q1021
EGNT 231620Z 10008KT 060V160 9999 FEW015 14/11 Q1021
EGNT 231550Z 10010KT 060V140 9999 FEW020 14/11 Q1021
EGNT 231520Z 08010KT 050V110 CAVOK 14/10 Q1021  
EGNT 231450Z 11009KT 070V160 CAVOK 15/10 Q1021  
EGNT 231420Z 09010KT 060V170 CAVOK 15/09 Q1021  
EGNT 231350Z 08011KT CAVOK 16/10 Q1021  
EGNT 231320Z 10007KT 060V190 CAVOK 17/11 Q1021  
EGNT 231250Z 11009KT 050V200 CAVOK 17/11 Q1021  
EGNT 231220Z 10009KT 060V150 CAVOK 17/10 Q1021  
EGNT 231150Z 09009KT 070V150 CAVOK 17/10 Q1021  
EGNT 231120Z VRB07KT CAVOK 17/10 Q1021  
EGNT 231050Z 11007KT 030V200 CAVOK 16/10 Q1022  
EGNT 231020Z 11006KT 070V190 CAVOK 16/08 Q1022  
EGNT 230950Z 11006KT 070V170 CAVOK 15/09 Q1022  
EGNT 230920Z 09005KT 070V150 CAVOK 15/11 Q1022  
EGNT 230850Z 09006KT 060V150 CAVOK 15/10 Q1022  
EGNT 230820Z VRB03KT CAVOK 15/10 Q1022